Time;durP1;ratioP1;P1;durP2;ratioP2;P2;SDS_P1;SDS_P2;PMS_P1;PMS_P2;Temp;Humidity;BMP_temperature;BMP_pressure;BME280_temperature;BME280_humidity;BME280_pressure;Samples;Min_cycle;Max_cycle;Signal;HPM_P1;HPM_P2
2022/03/10 00:09:24;;;;;;;20.90;11.10;;;3.60;52.20;;;;;;20916878;28;20273;-66
2022/03/10 00:19:26;;;;;;;20.97;10.80;;;3.70;52.80;;;;;;20925697;28;20207;-64
2022/03/10 00:29:28;;;;;;;22.27;10.90;;;3.60;52.70;;;;;;20924091;28;20297;-66
2022/03/10 00:39:29;;;;;;;16.50;9.63;;;3.50;52.90;;;;;;20923084;28;20609;-70
2022/03/10 00:49:31;;;;;;;21.67;11.43;;;3.40;53.20;;;;;;20921784;28;20239;-70
2022/03/10 00:59:33;;;;;;;24.53;11.00;;;3.20;53.40;;;;;;20921787;28;20258;-70
2022/03/10 01:09:34;;;;;;;18.00;10.50;;;3.00;53.50;;;;;;20920272;28;20293;-68
2022/03/10 01:19:36;;;;;;;19.67;11.07;;;3.10;54.00;;;;;;20919678;28;20732;-67
2022/03/10 01:29:38;;;;;;;21.13;11.27;;;3.10;53.90;;;;;;20901409;28;20693;-67
2022/03/10 01:39:39;;;;;;;18.77;11.23;;;3.10;53.70;;;;;;20918276;28;20214;-69
2022/03/10 01:49:41;;;;;;;19.90;11.23;;;3.10;53.70;;;;;;20917479;28;20760;-69
2022/03/10 01:59:43;;;;;;;19.80;10.77;;;3.10;54.10;;;;;;20917057;28;20272;-69
2022/03/10 02:20:06;;;;;;;23.07;11.50;;;2.80;54.70;;;;;;20915131;28;20206;-68
2022/03/10 02:36:49;;;;;;;21.23;10.50;;;2.50;55.30;;;;;;21412908;27;20291;-68
2022/03/10 02:46:53;;;;;;;19.87;11.13;;;2.40;55.10;;;;;;21321985;27;20199;-66
2022/03/10 02:56:58;;;;;;;20.67;11.70;;;2.40;55.60;;;;;;21321035;27;20335;-66
2022/03/10 03:06:59;;;;;;;23.77;11.17;;;2.50;55.70;;;;;;21319723;27;20274;-69
2022/03/10 03:17:01;;;;;;;20.20;11.00;;;2.40;56.00;;;;;;21319403;27;20212;-70
2022/03/10 03:27:04;;;;;;;17.87;10.67;;;2.20;55.70;;;;;;21317953;27;20205;-66
2022/03/10 03:37:06;;;;;;;18.00;9.93;;;2.00;56.20;;;;;;21317484;27;20206;-66
2022/03/10 03:47:07;;;;;;;21.30;11.03;;;2.10;57.00;;;;;;21265601;27;20260;-64
2022/03/10 03:57:10;;;;;;;18.77;10.63;;;2.20;56.40;;;;;;21259339;27;20265;-69
2022/03/10 04:07:12;;;;;;;20.80;10.77;;;2.10;56.00;;;;;;21258274;27;20691;-69
2022/03/10 04:17:13;;;;;;;23.50;11.33;;;2.00;56.40;;;;;;21257256;27;20718;-70
2022/03/10 04:27:15;;;;;;;18.47;10.43;;;2.00;56.80;;;;;;21256379;27;20239;-67
2022/03/10 04:37:17;;;;;;;25.40;11.27;;;1.90;56.50;;;;;;21255487;27;20198;-69
2022/03/10 04:47:19;;;;;;;18.00;10.23;;;1.80;57.10;;;;;;21254619;27;20234;-68
2022/03/10 04:57:21;;;;;;;16.97;10.10;;;1.80;57.60;;;;;;21253347;27;20208;-66
2022/03/10 05:07:23;;;;;;;20.80;10.87;;;1.60;57.50;;;;;;21253079;27;20276;-65
2022/03/10 05:17:24;;;;;;;26.40;10.37;;;1.40;58.20;;;;;;21253994;27;20243;-69
2022/03/10 05:27:26;;;;;;;23.67;11.33;;;1.40;58.80;;;;;;21251447;27;20243;-69
2022/03/10 05:37:28;;;;;;;22.30;11.83;;;1.40;58.10;;;;;;21250673;27;20646;-67
2022/03/10 05:47:30;;;;;;;21.53;11.80;;;1.40;58.30;;;;;;21249997;27;20704;-69
2022/03/10 05:57:32;;;;;;;26.80;11.23;;;1.30;58.50;;;;;;21249009;27;20207;-65
2022/03/10 06:07:35;;;;;;;23.00;11.60;;;1.30;58.40;;;;;;21247700;27;20280;-63
2022/03/10 06:17:37;;;;;;;24.47;12.07;;;1.40;58.70;;;;;;21247441;27;20247;-66
2022/03/10 06:27:39;;;;;;;25.93;12.70;;;1.50;58.50;;;;;;21246983;27;20235;-65
2022/03/10 06:37:44;;;;;;;28.50;11.90;;;1.50;59.20;;;;;;21246243;28;20212;-63
2022/03/10 06:57:16;;;;;;;32.17;13.23;;;2.00;59.00;;;;;;21065524;27;21106;-64
2022/03/10 07:07:18;;;;;;;39.90;12.37;;;2.10;58.90;;;;;;21065371;28;20211;-67
2022/03/10 07:17:19;;;;;;;37.77;13.40;;;2.50;58.80;;;;;;21063888;28;20576;-64
2022/03/10 07:27:21;;;;;;;26.37;13.70;;;2.50;59.20;;;;;;21063631;28;20240;-66
2022/03/10 07:37:23;;;;;;;41.17;13.63;;;2.90;59.20;;;;;;21062415;28;20267;-66
2022/03/10 07:50:17;;;;;;;50.43;14.67;;;3.40;59.10;;;;;;20982390;28;21085;-65
2022/03/10 08:00:19;;;;;;;38.73;14.30;;;3.40;59.60;;;;;;20981511;28;20614;-66
2022/03/10 08:10:21;;;;;;;31.33;14.67;;;3.70;59.40;;;;;;20980654;28;20614;-66
2022/03/10 08:20:23;;;;;;;29.37;13.87;;;3.90;58.50;;;;;;20980575;28;20713;-66
2022/03/10 08:30:25;;;;;;;27.70;14.97;;;4.30;59.00;;;;;;20987362;28;20264;-65
2022/03/10 08:40:28;;;;;;;32.50;14.93;;;4.50;58.70;;;;;;20979129;28;20211;-64
2022/03/10 08:50:30;;;;;;;37.03;14.93;;;5.10;57.60;;;;;;20978307;28;20210;-65
2022/03/10 09:00:32;;;;;;;38.97;15.40;;;5.20;57.80;;;;;;20928568;28;20208;-67
2022/03/10 09:10:35;;;;;;;43.57;16.07;;;5.40;57.50;;;;;;20920783;28;20212;-65
2022/03/10 09:20:38;;;;;;;37.07;14.37;;;6.20;56.40;;;;;;20921047;28;20208;-66
2022/03/10 09:30:39;;;;;;;30.00;14.33;;;6.60;56.00;;;;;;20920543;28;20268;-64
2022/03/10 09:40:41;;;;;;;27.27;13.40;;;6.60;56.40;;;;;;20919293;28;20245;-64
2022/03/10 09:50:45;;;;;;;31.57;15.97;;;7.10;56.00;;;;;;20918628;28;20210;-66
2022/03/10 10:00:47;;;;;;;24.90;13.30;;;7.50;55.50;;;;;;20918445;28;20235;-65
2022/03/10 10:10:53;;;;;;;23.63;12.77;;;8.00;54.40;;;;;;20922709;28;20210;-64
2022/03/10 10:20:56;;;;;;;18.30;11.00;;;8.30;54.20;;;;;;20915813;28;20238;-68
2022/03/10 10:30:59;;;;;;;17.27;11.20;;;8.80;52.90;;;;;;20915309;28;20281;-66
2022/03/10 10:41:21;;;;;;;17.70;10.83;;;8.80;53.30;;;;;;20914133;28;20706;-68
2022/03/10 10:51:29;;;;;;;20.43;9.93;;;9.50;51.50;;;;;;20913432;28;20209;-66
2022/03/10 11:01:35;;;;;;;18.57;9.43;;;9.50;51.70;;;;;;20912779;28;20338;-70
2022/03/10 11:11:38;;;;;;;17.43;9.53;;;9.90;50.40;;;;;;20912533;28;20219;-66
2022/03/10 11:21:48;;;;;;;15.57;9.47;;;10.20;49.20;;;;;;20911874;28;20235;-65
2022/03/10 11:31:53;;;;;;;16.17;8.63;;;10.50;48.50;;;;;;20910742;28;20237;-65
2022/03/10 11:42:00;;;;;;;15.03;9.07;;;10.80;47.40;;;;;;20910284;28;20245;-68
2022/03/10 11:52:04;;;;;;;16.27;9.83;;;11.10;46.80;;;;;;20910711;28;20272;-67
2022/03/10 12:02:08;;;;;;;17.37;9.53;;;11.50;46.30;;;;;;20909678;28;20231;-66
2022/03/10 12:12:27;;;;;;;15.03;9.07;;;11.90;45.50;;;;;;20909448;28;20259;-66
2022/03/10 12:23:04;;;;;;;14.33;9.03;;;12.60;43.50;;;;;;20908618;28;20572;-66
2022/03/10 12:33:05;;;;;;;7.37;5.33;;;12.60;44.00;;;;;;20913991;28;20224;-64
2022/03/10 12:43:09;;;;;;;7.67;5.57;;;13.70;44.30;;;;;;20922927;28;20698;-66
2022/03/10 12:53:13;;;;;;;8.63;5.63;;;14.30;42.50;;;;;;20922461;28;20269;-65
2022/03/10 13:03:14;;;;;;;8.23;6.13;;;14.50;41.20;;;;;;20921922;28;20349;-64
2022/03/10 13:13:29;;;;;;;8.80;6.20;;;14.50;41.00;;;;;;20921865;28;20546;-66
2022/03/10 13:23:31;;;;;;;12.63;6.97;;;14.90;40.60;;;;;;20919946;28;20250;-67
2022/03/10 13:33:33;;;;;;;18.73;8.70;;;14.90;37.40;;;;;;20919210;28;20204;-68
2022/03/10 13:43:38;;;;;;;13.60;7.93;;;14.80;36.70;;;;;;20917554;28;20257;-67
2022/03/10 13:53:54;;;;;;;11.07;7.70;;;14.80;36.10;;;;;;20918505;28;20200;-70
2022/03/10 14:03:56;;;;;;;10.37;7.00;;;15.00;34.00;;;;;;20918011;28;20706;-65
2022/03/10 14:14:03;;;;;;;10.40;7.47;;;15.00;34.50;;;;;;20917201;28;20561;-66
2022/03/10 14:24:05;;;;;;;9.63;7.10;;;15.50;33.50;;;;;;20915406;28;20286;-68
2022/03/10 14:34:07;;;;;;;13.97;7.80;;;16.30;32.90;;;;;;20942973;28;20290;-68
2022/03/10 14:55:31;;;;;;;11.67;7.40;;;19.70;30.20;;;;;;20914102;28;20559;-71
2022/03/10 15:05:33;;;;;;;11.40;7.87;;;22.00;29.60;;;;;;20914522;28;20699;-67
2022/03/10 15:15:35;;;;;;;12.60;8.40;;;22.90;28.40;;;;;;20912252;28;20734;-67
2022/03/10 15:25:37;;;;;;;8.20;6.85;;;24.70;27.30;;;;;;20911959;28;20263;-68
2022/03/10 15:35:42;;;;;;;9.60;7.65;;;25.70;26.30;;;;;;20911827;28;20207;-68
2022/03/10 15:45:49;;;;;;;12.13;7.40;;;24.60;25.80;;;;;;20909821;28;20239;-67
2022/03/10 15:55:53;;;;;;;12.47;7.37;;;23.00;25.60;;;;;;20909658;28;20282;-66
2022/03/10 16:05:54;;;;;;;14.87;7.10;;;19.60;25.80;;;;;;20916406;28;20238;-69
2022/03/10 16:15:57;;;;;;;11.07;6.90;;;17.50;26.00;;;;;;20926470;28;20560;-67
2022/03/10 16:25:59;;;;;;;9.07;6.10;;;15.90;26.30;;;;;;20924782;28;20327;-64
2022/03/10 16:36:00;;;;;;;15.67;8.23;;;15.70;26.90;;;;;;20924136;28;20207;-67
2022/03/10 16:46:04;;;;;;;15.63;8.23;;;14.90;27.20;;;;;;20923712;28;20235;-66
2022/03/10 16:56:07;;;;;;;17.33;6.70;;;14.70;28.00;;;;;;20923094;28;20644;-69
2022/03/10 17:06:09;;;;;;;11.50;6.83;;;14.30;28.50;;;;;;20922693;28;20699;-70
2022/03/10 17:16:11;;;;;;;13.17;7.43;;;14.00;29.10;;;;;;20929009;28;20208;-63
2022/03/10 17:26:14;;;;;;;12.67;7.53;;;13.70;29.60;;;;;;20968824;28;20586;-67
2022/03/10 17:36:16;;;;;;;15.60;7.53;;;13.40;30.20;;;;;;20959463;28;20536;-64
2022/03/10 17:46:18;;;;;;;13.20;8.27;;;12.80;30.90;;;;;;20919960;28;20298;-63
2022/03/10 17:56:20;;;;;;;14.10;7.60;;;12.80;31.60;;;;;;20987995;28;20245;-67
2022/03/10 18:06:22;;;;;;;15.33;7.93;;;12.60;32.20;;;;;;21000082;28;20239;-66
2022/03/10 18:16:23;;;;;;;13.80;7.73;;;12.30;33.00;;;;;;21000040;28;20218;-65
2022/03/10 18:26:26;;;;;;;15.57;8.77;;;;;;;;;;20962380;28;20640;-70
2022/03/10 18:36:28;;;;;;;16.00;9.07;;;11.80;33.70;;;;;;20915873;28;20212;-67
2022/03/10 18:46:30;;;;;;;12.43;7.77;;;11.50;34.70;;;;;;20915036;28;20245;-63
2022/03/10 18:56:35;;;;;;;16.20;9.17;;;11.30;35.10;;;;;;20912535;28;20210;-68
2022/03/10 19:06:38;;;;;;;17.60;7.90;;;11.00;35.40;;;;;;20911964;28;20597;-69
2022/03/10 19:16:40;;;;;;;14.10;8.83;;;10.70;35.80;;;;;;20908447;28;20235;-64
2022/03/10 19:26:42;;;;;;;14.67;7.60;;;10.30;35.50;;;;;;20909528;28;20285;-63
2022/03/10 19:36:44;;;;;;;14.10;7.67;;;10.00;35.80;;;;;;20919418;28;20278;-66
2022/03/10 19:46:45;;;;;;;15.10;7.90;;;9.80;37.20;;;;;;20928193;28;20245;-65
2022/03/10 19:56:48;;;;;;;12.37;7.80;;;;;;;;;;20919035;28;20228;-68
2022/03/10 20:06:49;;;;;;;16.40;9.33;;;9.60;37.50;;;;;;20909317;28;20319;-69
2022/03/10 20:16:51;;;;;;;12.67;8.40;;;9.60;38.20;;;;;;20908338;28;20204;-65
2022/03/10 20:26:56;;;;;;;14.60;8.00;;;9.30;38.60;;;;;;20908380;28;20235;-63
2022/03/10 20:36:57;;;;;;;14.43;8.47;;;8.90;39.60;;;;;;20924691;28;20207;-63
2022/03/10 20:46:59;;;;;;;14.57;9.23;;;8.80;40.10;;;;;;20920504;28;20246;-66
2022/03/10 20:57:01;;;;;;;17.70;9.40;;;8.70;40.90;;;;;;20920043;28;20607;-64
2022/03/10 21:07:03;;;;;;;20.00;8.90;;;8.40;41.90;;;;;;20920662;28;20235;-63
2022/03/10 21:17:05;;;;;;;18.23;10.10;;;8.40;42.60;;;;;;20919924;28;20292;-62
2022/03/10 21:27:07;;;;;;;21.63;10.10;;;8.20;43.20;;;;;;20919394;28;20236;-63
2022/03/10 21:37:09;;;;;;;20.60;11.07;;;8.20;44.10;;;;;;20918174;28;20210;-64
2022/03/10 21:47:10;;;;;;;20.03;9.40;;;7.90;44.60;;;;;;20917660;28;20294;-69
2022/03/10 21:57:12;;;;;;;20.37;8.97;;;7.80;45.70;;;;;;20917413;28;20257;-72
2022/03/10 22:07:14;;;;;;;18.43;9.23;;;7.60;46.60;;;;;;20917556;28;20688;-68
2022/03/10 22:17:16;;;;;;;15.13;8.33;;;7.40;47.60;;;;;;20915459;28;20213;-68
2022/03/10 22:27:18;;;;;;;15.73;8.80;;;7.20;48.50;;;;;;20914857;28;20699;-69
2022/03/10 22:37:20;;;;;;;31.80;10.20;;;6.90;48.40;;;;;;20913164;28;20209;-61
2022/03/10 22:47:22;;;;;;;25.30;10.17;;;6.80;48.90;;;;;;20911753;28;20235;-64
2022/03/10 22:57:24;;;;;;;17.70;10.47;;;6.60;49.30;;;;;;20914304;28;20212;-68
2022/03/10 23:07:25;;;;;;;16.70;10.77;;;6.60;50.00;;;;;;20913636;28;20266;-69
2022/03/10 23:17:27;;;;;;;19.27;11.07;;;6.50;49.90;;;;;;20913041;28;20204;-69
2022/03/10 23:27:29;;;;;;;20.00;10.63;;;6.50;50.80;;;;;;20912950;28;20233;-70
2022/03/10 23:37:30;;;;;;;19.93;11.63;;;6.50;51.10;;;;;;20912418;28;20606;-69
2022/03/10 23:47:32;;;;;;;22.97;12.77;;;6.50;51.10;;;;;;20911570;28;20289;-63
2022/03/10 23:57:34;;;;;;;24.73;13.20;;;6.60;51.40;;;;;;20911821;28;20212;-70
